Time;durP1;ratioP1;P1;durP2;ratioP2;P2;SDS_P1;SDS_P2;PMS_P1;PMS_P2;Temp;Humidity;BMP_temperature;BMP_pressure;BME280_temperature;BME280_humidity;BME280_pressure;Samples;Min_cycle;Max_cycle;Signal;HPM_P1;HPM_P2
2023/10/25 00:01:17;;;;;;;4.33;2.97;;;11.90;63.30;;;;;;5029214;28;47083;-83
2023/10/25 00:03:42;;;;;;;4.77;2.07;;;11.80;64.50;;;;;;5026932;28;46539;-82
2023/10/25 00:06:08;;;;;;;4.23;2.10;;;11.80;63.50;;;;;;5034312;28;46693;-82
2023/10/25 00:08:33;;;;;;;4.00;2.23;;;11.70;63.60;;;;;;5028174;28;46803;-81
2023/10/25 00:11:07;;;;;;;4.63;2.40;;;11.80;63.70;;;;;;5028052;28;49322;-84
2023/10/25 00:13:33;;;;;;;3.70;3.10;;;11.80;63.70;;;;;;5029288;28;46589;-82
2023/10/25 00:15:59;;;;;;;5.93;3.33;;;11.70;63.50;;;;;;5029843;28;47006;-84
2023/10/25 00:18:26;;;;;;;4.87;3.40;;;11.70;63.40;;;;;;5029480;28;46664;-84
2023/10/25 00:20:52;;;;;;;5.43;3.70;;;11.80;63.60;;;;;;5028900;28;46460;-82
2023/10/25 00:23:19;;;;;;;6.47;3.63;;;11.70;63.50;;;;;;5029118;28;46810;-81
2023/10/25 00:25:45;;;;;;;6.50;4.10;;;11.70;63.50;;;;;;5029322;28;46825;-81
2023/10/25 00:28:11;;;;;;;5.77;3.70;;;11.60;63.50;;;;;;5026259;28;46702;-84
2023/10/25 00:30:37;;;;;;;5.27;3.07;;;11.60;63.70;;;;;;5034196;28;49762;-82
2023/10/25 00:33:03;;;;;;;4.63;3.30;;;11.60;63.80;;;;;;5028135;28;46536;-83
2023/10/25 00:35:29;;;;;;;5.30;3.30;;;11.50;63.80;;;;;;5027099;28;46493;-82
2023/10/25 00:37:54;;;;;;;4.43;2.90;;;11.50;63.90;;;;;;5029376;28;46983;-84
2023/10/25 00:40:20;;;;;;;3.97;2.70;;;11.50;63.90;;;;;;5030201;28;47876;-83
2023/10/25 00:42:46;;;;;;;4.30;3.10;;;11.50;63.90;;;;;;5027404;28;46471;-82
2023/10/25 00:45:11;;;;;;;4.50;2.83;;;11.40;64.00;;;;;;5027991;28;46459;-82
2023/10/25 00:47:37;;;;;;;4.97;3.10;;;11.40;63.90;;;;;;5030917;28;46458;-84
2023/10/25 00:50:03;;;;;;;4.60;2.70;;;11.40;63.80;;;;;;5028249;28;47349;-82
2023/10/25 00:52:29;;;;;;;5.00;2.80;;;11.40;63.70;;;;;;5028229;28;46581;-82
2023/10/25 00:54:56;;;;;;;5.27;2.73;;;11.40;63.70;;;;;;5025567;28;46431;-82
2023/10/25 00:57:22;;;;;;;4.60;2.97;;;11.50;63.60;;;;;;5035145;28;46593;-82
2023/10/25 00:59:47;;;;;;;3.80;2.70;;;11.50;63.50;;;;;;5028368;28;46510;-83
2023/10/25 01:02:14;;;;;;;4.40;2.87;;;11.50;63.50;;;;;;5026193;28;46816;-83
2023/10/25 01:04:40;;;;;;;5.30;3.07;;;11.50;63.50;;;;;;5045728;28;46413;-82
2023/10/25 01:07:05;;;;;;;6.00;3.60;;;11.40;63.40;;;;;;5031346;28;46796;-82
2023/10/25 01:09:31;;;;;;;3.80;2.60;;;11.40;63.50;;;;;;5029654;28;47958;-81
2023/10/25 01:11:58;;;;;;;4.40;3.33;;;11.50;63.60;;;;;;5030594;28;45872;-81
2023/10/25 01:14:27;;;;;;;7.80;3.43;;;11.50;63.50;;;;;;5028028;28;46471;-82
2023/10/25 01:16:53;;;;;;;6.20;3.00;;;11.50;63.50;;;;;;5030109;28;46255;-82
2023/10/25 01:19:19;;;;;;;4.07;2.93;;;11.40;63.40;;;;;;5030352;28;46538;-84
2023/10/25 01:21:44;;;;;;;3.77;2.70;;;11.50;63.40;;;;;;5027073;28;46723;-83
2023/10/25 01:24:11;;;;;;;4.40;2.83;;;11.40;63.40;;;;;;5029105;28;46554;-82
2023/10/25 01:26:36;;;;;;;3.37;2.43;;;11.40;63.50;;;;;;5029234;28;46920;-86
2023/10/25 01:29:02;;;;;;;8.73;2.70;;;11.40;63.40;;;;;;5029291;28;46464;-82
2023/10/25 01:31:28;;;;;;;3.47;2.30;;;11.30;63.50;;;;;;5025158;28;46410;-82
2023/10/25 01:33:53;;;;;;;6.07;3.07;;;11.30;63.70;;;;;;5029198;28;46674;-83
2023/10/25 01:36:19;;;;;;;4.30;2.80;;;11.20;63.70;;;;;;5030216;28;46415;-84
2023/10/25 01:38:45;;;;;;;6.50;2.63;;;11.20;63.90;;;;;;5026256;28;48009;-84
2023/10/25 01:41:15;;;;;;;4.37;2.67;;;11.10;64.10;;;;;;5028142;28;46589;-84
2023/10/25 01:43:42;;;;;;;5.60;2.77;;;11.10;64.30;;;;;;5033279;28;46430;-82
2023/10/25 01:46:08;;;;;;;4.10;3.00;;;10.90;64.50;;;;;;5039559;28;46446;-85
2023/10/25 01:48:33;;;;;;;4.50;2.90;;;10.80;65.10;;;;;;5045678;28;48178;-82
2023/10/25 01:50:59;;;;;;;4.40;2.93;;;10.70;65.10;;;;;;5033241;28;46381;-81
2023/10/25 01:53:25;;;;;;;3.47;2.80;;;10.60;65.00;;;;;;5029753;28;46649;-81
2023/10/25 01:55:50;;;;;;;6.30;3.47;;;10.60;65.00;;;;;;5029919;28;46572;-82
2023/10/25 01:58:16;;;;;;;5.57;3.00;;;10.50;64.90;;;;;;5029289;28;46431;-82
2023/10/25 02:00:41;;;;;;;5.30;3.30;;;10.40;64.80;;;;;;5030562;28;46459;-82
2023/10/25 02:03:07;;;;;;;5.50;3.40;;;10.40;65.30;;;;;;5036348;28;46422;-81
2023/10/25 02:05:33;;;;;;;5.23;3.60;;;10.30;65.30;;;;;;5033508;28;45956;-83
2023/10/25 02:07:58;;;;;;;5.47;4.13;;;10.20;65.60;;;;;;5036832;28;46611;-83
2023/10/25 02:10:24;;;;;;;9.93;3.80;;;10.10;65.60;;;;;;5035998;28;46434;-83
2023/10/25 02:12:50;;;;;;;6.97;4.07;;;10.20;65.60;;;;;;5038138;28;46834;-85
2023/10/25 02:15:15;;;;;;;6.37;4.77;;;10.10;65.40;;;;;;5035545;28;46526;-84
2023/10/25 02:17:41;;;;;;;6.33;4.33;;;10.10;65.10;;;;;;5038380;28;46500;-84
2023/10/25 02:20:07;;;;;;;10.27;5.70;;;10.20;65.00;;;;;;5034689;28;46870;-81
2023/10/25 02:22:32;;;;;;;7.17;5.17;;;10.00;64.60;;;;;;5029531;28;46499;-82
2023/10/25 02:24:58;;;;;;;7.20;4.67;;;10.10;64.70;;;;;;5028888;28;45898;-83
2023/10/25 02:27:23;;;;;;;11.20;4.87;;;10.00;64.90;;;;;;5027477;28;49777;-84
2023/10/25 02:29:49;;;;;;;8.43;4.80;;;9.90;66.00;;;;;;5028567;28;46411;-83
2023/10/25 02:32:15;;;;;;;8.10;5.07;;;9.90;66.20;;;;;;5028118;28;46558;-83
2023/10/25 02:34:40;;;;;;;7.20;5.30;;;9.80;66.10;;;;;;5029551;28;46364;-83
2023/10/25 02:37:06;;;;;;;6.10;4.77;;;9.80;66.20;;;;;;5029472;28;46446;-83
2023/10/25 02:39:31;;;;;;;8.27;4.67;;;9.80;66.10;;;;;;5030160;28;46005;-83
2023/10/25 02:41:57;;;;;;;7.70;4.70;;;9.70;66.10;;;;;;5031358;28;46528;-83
2023/10/25 02:44:22;;;;;;;7.43;4.13;;;9.70;66.00;;;;;;5028738;28;47025;-84
2023/10/25 02:46:48;;;;;;;5.63;4.40;;;9.60;66.30;;;;;;5027837;28;47915;-84
2023/10/25 02:49:14;;;;;;;8.20;5.00;;;9.50;66.30;;;;;;5036183;28;45882;-83
2023/10/25 02:51:39;;;;;;;7.60;4.70;;;9.50;66.40;;;;;;5029916;28;46196;-83
2023/10/25 02:54:05;;;;;;;8.10;4.40;;;9.40;66.50;;;;;;5034004;28;46475;-80
2023/10/25 02:56:31;;;;;;;6.57;4.07;;;9.30;66.50;;;;;;5030917;28;46848;-81
2023/10/25 02:58:56;;;;;;;7.03;4.47;;;9.30;66.70;;;;;;5030743;28;46465;-84
2023/10/25 03:01:25;;;;;;;8.03;4.67;;;9.20;67.00;;;;;;5032554;28;46393;-80
2023/10/25 03:03:51;;;;;;;7.40;4.93;;;9.20;67.10;;;;;;5036055;28;46661;-82
2023/10/25 03:06:17;;;;;;;7.70;5.30;;;9.20;66.80;;;;;;5034089;28;46714;-80
2023/10/25 03:08:43;;;;;;;6.93;4.87;;;9.30;66.60;;;;;;5031799;28;46519;-80
2023/10/25 03:11:08;;;;;;;10.03;5.17;;;9.30;66.40;;;;;;5032672;28;46710;-81
2023/10/25 03:13:34;;;;;;;6.70;4.50;;;9.30;66.50;;;;;;5034449;28;46427;-82
2023/10/25 03:15:59;;;;;;;7.43;4.80;;;9.20;66.70;;;;;;5029184;28;47222;-80
2023/10/25 03:18:25;;;;;;;10.20;5.00;;;9.10;67.10;;;;;;5032313;28;46442;-84
2023/10/25 03:20:50;;;;;;;5.50;4.10;;;9.00;67.40;;;;;;5035808;28;46422;-82
2023/10/25 03:23:16;;;;;;;6.20;4.80;;;8.90;67.60;;;;;;5037793;28;46511;-85
2023/10/25 03:25:42;;;;;;;7.03;3.93;;;8.90;68.00;;;;;;5033676;28;47457;-83
2023/10/25 03:28:07;;;;;;;6.33;4.20;;;8.80;68.00;;;;;;5030540;28;46508;-84
2023/10/25 03:30:35;;;;;;;6.20;3.90;;;8.80;68.10;;;;;;5035193;28;46330;-84
2023/10/25 03:33:00;;;;;;;7.03;4.37;;;8.80;68.10;;;;;;5036370;28;46407;-81
2023/10/25 03:35:27;;;;;;;6.33;4.33;;;8.70;67.70;;;;;;5032991;28;46129;-79
2023/10/25 03:37:52;;;;;;;7.10;4.53;;;8.70;67.70;;;;;;5033270;28;46477;-82
2023/10/25 03:40:18;;;;;;;8.00;4.77;;;8.70;67.80;;;;;;5030761;28;45842;-81
2023/10/25 03:42:43;;;;;;;7.43;4.37;;;8.70;67.70;;;;;;5048114;28;46603;-81
2023/10/25 03:45:10;;;;;;;6.73;4.40;;;8.70;67.60;;;;;;5032791;28;47588;-82
2023/10/25 03:47:37;;;;;;;9.73;5.03;;;8.70;67.40;;;;;;5037417;28;46748;-81
2023/10/25 03:50:04;;;;;;;8.97;4.80;;;8.80;67.30;;;;;;5030779;28;46983;-83
2023/10/25 03:52:30;;;;;;;6.97;4.90;;;8.90;67.00;;;;;;5031903;28;46495;-81
2023/10/25 03:54:55;;;;;;;10.40;5.73;;;8.90;67.00;;;;;;5033616;28;49400;-81
2023/10/25 03:57:21;;;;;;;7.33;4.80;;;8.90;66.70;;;;;;5030209;28;46776;-81
2023/10/25 03:59:47;;;;;;;6.60;4.40;;;9.00;66.70;;;;;;5037402;28;46485;-80
2023/10/25 04:02:12;;;;;;;7.00;4.53;;;9.00;66.40;;;;;;5029653;28;46554;-82
2023/10/25 04:04:38;;;;;;;7.07;5.03;;;9.00;66.40;;;;;;5030286;28;47753;-83
2023/10/25 04:07:03;;;;;;;9.60;6.97;;;9.00;66.30;;;;;;5033533;28;46425;-80
2023/10/25 04:09:29;;;;;;;8.00;5.93;;;9.20;66.30;;;;;;5031381;28;46772;-83
2023/10/25 04:11:55;;;;;;;7.37;5.60;;;9.10;66.20;;;;;;5029509;28;46724;-82
2023/10/25 04:14:20;;;;;;;6.47;4.77;;;9.20;65.90;;;;;;5030155;28;47873;-85
2023/10/25 04:16:46;;;;;;;9.60;4.40;;;9.20;65.70;;;;;;5028239;28;46450;-83
2023/10/25 04:19:11;;;;;;;11.90;5.10;;;9.30;65.50;;;;;;5033385;28;46860;-83
2023/10/25 04:21:37;;;;;;;11.10;4.47;;;9.30;65.50;;;;;;5030789;28;46367;-83
2023/10/25 04:24:03;;;;;;;11.73;4.90;;;9.20;65.50;;;;;;5032759;28;47730;-82
2023/10/25 04:26:29;;;;;;;5.17;4.17;;;9.20;65.80;;;;;;5031096;28;47071;-83
2023/10/25 04:28:54;;;;;;;6.27;4.53;;;9.10;65.90;;;;;;5035079;28;46528;-84
2023/10/25 04:31:20;;;;;;;5.60;3.90;;;9.10;66.10;;;;;;5044845;28;46730;-82
2023/10/25 04:33:47;;;;;;;6.97;4.03;;;9.00;66.40;;;;;;5028325;28;47033;-83
2023/10/25 04:36:13;;;;;;;6.07;3.50;;;8.90;66.50;;;;;;5028184;28;46529;-83
2023/10/25 04:38:39;;;;;;;10.03;4.40;;;8.90;66.80;;;;;;5034050;28;46501;-84
2023/10/25 04:41:05;;;;;;;7.97;4.57;;;8.80;66.80;;;;;;5030074;28;46758;-85
2023/10/25 04:43:30;;;;;;;7.83;4.60;;;8.90;66.80;;;;;;5028443;28;49318;-83
2023/10/25 04:45:56;;;;;;;6.53;4.57;;;8.90;66.60;;;;;;5030591;28;47274;-82
2023/10/25 04:48:22;;;;;;;6.53;3.80;;;8.80;66.40;;;;;;5031024;28;46600;-85
2023/10/25 04:50:47;;;;;;;6.70;4.00;;;8.80;66.50;;;;;;5027404;28;46404;-85
2023/10/25 04:53:13;;;;;;;10.03;4.83;;;8.70;66.50;;;;;;5029401;28;46476;-85
2023/10/25 04:55:44;;;;;;;6.20;4.07;;;8.60;66.60;;;;;;5026122;28;46710;-84
2023/10/25 04:58:10;;;;;;;8.53;4.70;;;8.50;66.90;;;;;;5031757;28;46514;-83
2023/10/25 05:00:36;;;;;;;6.70;4.17;;;8.50;67.30;;;;;;5028400;28;46527;-83
2023/10/25 05:03:04;;;;;;;7.27;4.23;;;8.30;67.50;;;;;;5035575;28;47759;-82
2023/10/25 05:05:30;;;;;;;6.67;4.20;;;8.20;67.70;;;;;;5032602;28;45793;-85
2023/10/25 05:07:56;;;;;;;5.90;4.10;;;8.10;68.00;;;;;;5029295;28;46655;-81
2023/10/25 05:10:22;;;;;;;6.73;4.57;;;8.10;68.20;;;;;;5034878;28;46663;-81
2023/10/25 05:12:48;;;;;;;7.30;4.70;;;8.00;68.30;;;;;;5035788;28;46506;-82
2023/10/25 05:15:16;;;;;;;7.03;4.43;;;8.00;68.40;;;;;;5031105;28;46518;-82
2023/10/25 05:17:43;;;;;;;8.10;5.27;;;8.00;68.30;;;;;;5034504;28;46657;-82
2023/10/25 05:20:10;;;;;;;9.23;5.00;;;8.00;68.30;;;;;;5043824;28;46419;-82
2023/10/25 05:22:37;;;;;;;9.33;4.97;;;7.90;68.20;;;;;;5031601;28;47893;-81
2023/10/25 05:25:05;;;;;;;6.50;4.53;;;7.90;68.40;;;;;;5030763;28;46647;-82
2023/10/25 05:27:32;;;;;;;8.80;4.30;;;7.90;68.20;;;;;;5027416;28;47032;-81
2023/10/25 05:30:03;;;;;;;8.20;4.40;;;7.90;68.30;;;;;;5027521;28;46761;-84
2023/10/25 05:32:30;;;;;;;9.80;5.30;;;7.80;68.20;;;;;;5030567;28;46853;-79
2023/10/25 05:34:58;;;;;;;8.07;4.90;;;7.80;68.30;;;;;;5029689;28;46205;-80
2023/10/25 05:37:25;;;;;;;7.30;5.20;;;7.80;68.30;;;;;;5028814;28;45881;-82
2023/10/25 05:39:51;;;;;;;6.30;4.50;;;7.70;68.20;;;;;;5031982;28;46580;-82
2023/10/25 05:42:21;;;;;;;9.13;5.57;;;7.70;68.20;;;;;;5032448;28;48919;-83
2023/10/25 05:44:48;;;;;;;23.33;14.30;;;7.70;68.20;;;;;;5030573;28;46728;-81
2023/10/25 05:47:14;;;;;;;15.33;11.20;;;7.70;68.20;;;;;;5027836;28;46591;-82
2023/10/25 05:49:41;;;;;;;10.10;7.00;;;7.70;68.20;;;;;;5030815;28;46459;-79
2023/10/25 05:52:07;;;;;;;9.97;5.70;;;7.70;68.00;;;;;;5028907;28;48519;-82
2023/10/25 05:54:35;;;;;;;8.30;5.90;;;7.70;67.90;;;;;;5026472;28;46690;-81
2023/10/25 05:57:01;;;;;;;11.20;5.80;;;7.70;67.80;;;;;;5030630;28;46757;-81
2023/10/25 05:59:26;;;;;;;9.47;5.80;;;7.70;67.70;;;;;;5029157;28;46719;-81
2023/10/25 06:02:06;;;;;;;8.47;5.17;;;7.70;67.70;;;;;;5031823;28;46654;-82
2023/10/25 06:04:33;;;;;;;7.57;4.97;;;7.60;67.60;;;;;;5029701;28;46706;-82
2023/10/25 06:06:59;;;;;;;8.20;5.10;;;7.60;67.60;;;;;;5028334;28;46616;-84
2023/10/25 06:09:24;;;;;;;8.80;5.10;;;7.60;67.60;;;;;;5028417;28;46417;-84
2023/10/25 06:11:51;;;;;;;9.17;5.60;;;7.60;67.60;;;;;;5028386;28;46748;-84
2023/10/25 06:14:17;;;;;;;11.13;5.60;;;7.60;67.60;;;;;;5029905;28;46692;-84
2023/10/25 06:16:43;;;;;;;10.60;5.87;;;7.60;67.70;;;;;;5031309;28;46750;-83
2023/10/25 06:19:09;;;;;;;12.40;6.53;;;7.60;67.70;;;;;;5027277;28;46433;-83
2023/10/25 06:21:34;;;;;;;12.17;8.03;;;7.60;67.70;;;;;;5028812;28;46580;-83
2023/10/25 06:24:00;;;;;;;17.13;12.40;;;7.60;67.60;;;;;;5026949;28;47037;-86
2023/10/25 06:26:25;;;;;;;13.23;9.30;;;7.60;67.50;;;;;;5028387;28;46875;-82
2023/10/25 06:28:51;;;;;;;10.83;8.10;;;7.70;67.60;;;;;;5027891;28;46512;-84
2023/10/25 06:31:16;;;;;;;9.40;6.53;;;7.70;67.30;;;;;;5029905;28;46502;-84
2023/10/25 06:33:42;;;;;;;9.07;6.37;;;7.80;67.30;;;;;;5027344;28;46723;-83
2023/10/25 06:36:09;;;;;;;10.30;7.40;;;7.90;68.30;;;;;;5024917;28;46437;-83
2023/10/25 06:38:35;;;;;;;32.50;17.13;;;8.00;67.10;;;;;;5030380;28;46544;-81
2023/10/25 06:41:02;;;;;;;73.67;29.07;;;8.10;67.00;;;;;;5035856;28;48292;-84
2023/10/25 06:43:29;;;;;;;14.03;8.70;;;8.20;66.90;;;;;;5031052;28;46252;-82
2023/10/25 06:45:55;;;;;;;13.93;6.50;;;8.20;66.90;;;;;;5045241;28;46418;-83
2023/10/25 06:48:21;;;;;;;9.17;5.63;;;8.30;66.80;;;;;;5040262;28;46480;-83
2023/10/25 06:50:47;;;;;;;9.90;5.97;;;8.30;66.80;;;;;;5042206;28;46529;-83
2023/10/25 06:53:13;;;;;;;9.60;5.43;;;8.40;66.90;;;;;;5030995;28;46385;-84
2023/10/25 06:55:39;;;;;;;13.93;5.00;;;8.40;67.00;;;;;;5036768;28;46839;-83
2023/10/25 06:58:05;;;;;;;5.93;4.37;;;8.50;67.10;;;;;;5048246;28;46351;-83
2023/10/25 07:00:31;;;;;;;7.50;5.00;;;8.60;67.10;;;;;;5035306;28;47038;-83
2023/10/25 07:03:02;;;;;;;7.90;5.60;;;8.70;67.00;;;;;;5032518;28;46503;-84
2023/10/25 07:05:29;;;;;;;7.23;5.03;;;8.80;66.90;;;;;;5036178;28;45827;-84
2023/10/25 07:07:55;;;;;;;7.77;4.70;;;8.90;66.80;;;;;;5030288;28;46631;-82
2023/10/25 07:10:22;;;;;;;7.00;5.03;;;9.00;66.80;;;;;;5025686;28;46611;-83
2023/10/25 07:12:48;;;;;;;7.90;4.17;;;9.10;66.60;;;;;;5029134;28;46437;-83
2023/10/25 07:15:13;;;;;;;6.70;4.80;;;9.20;66.60;;;;;;5027500;28;46383;-82
2023/10/25 07:17:39;;;;;;;7.03;4.60;;;9.30;66.50;;;;;;5027550;28;46689;-81
2023/10/25 07:20:06;;;;;;;5.40;3.90;;;9.60;66.90;;;;;;5032326;28;46759;-83
2023/10/25 07:22:32;;;;;;;5.27;3.90;;;9.50;66.60;;;;;;5031382;28;46545;-83
2023/10/25 07:24:58;;;;;;;5.33;4.00;;;9.60;66.60;;;;;;5027879;28;46732;-83
2023/10/25 07:27:24;;;;;;;6.53;4.63;;;9.80;67.00;;;;;;5025641;28;46682;-81
2023/10/25 07:29:50;;;;;;;6.03;3.83;;;9.80;66.80;;;;;;5028399;28;46321;-81
2023/10/25 07:32:18;;;;;;;5.00;3.83;;;10.00;65.70;;;;;;5027950;28;46224;-80
2023/10/25 07:34:44;;;;;;;5.80;3.40;;;10.10;65.60;;;;;;5025093;28;46264;-82
2023/10/25 07:37:09;;;;;;;6.40;3.90;;;10.30;65.50;;;;;;5028318;28;46445;-82
2023/10/25 07:39:35;;;;;;;4.43;3.33;;;10.40;65.20;;;;;;5030399;28;47033;-82
2023/10/25 07:42:03;;;;;;;4.90;3.30;;;10.60;65.10;;;;;;5038605;28;46502;-80
2023/10/25 07:44:29;;;;;;;3.87;3.30;;;10.60;65.00;;;;;;5030687;28;46472;-81
2023/10/25 07:46:55;;;;;;;4.70;3.63;;;10.80;65.20;;;;;;5039136;28;46461;-83
2023/10/25 07:49:20;;;;;;;3.30;2.60;;;10.90;66.40;;;;;;5032971;28;47050;-83
2023/10/25 07:51:46;;;;;;;3.83;2.90;;;10.90;65.20;;;;;;5035957;28;46971;-81
2023/10/25 07:54:11;;;;;;;10.93;2.93;;;11.10;65.40;;;;;;5030532;28;46440;-85
2023/10/25 07:56:37;;;;;;;3.73;2.80;;;11.20;65.60;;;;;;5031208;28;46700;-80
2023/10/25 07:59:02;;;;;;;3.73;1.90;;;11.30;65.60;;;;;;5027090;28;46982;-81
2023/10/25 08:01:28;;;;;;;2.53;1.80;;;11.40;65.80;;;;;;5027542;28;46670;-81
2023/10/25 08:03:54;;;;;;;4.57;2.17;;;11.50;65.80;;;;;;5031084;28;46345;-81
2023/10/25 08:06:21;;;;;;;2.50;1.70;;;11.60;65.90;;;;;;5033037;28;46562;-81
2023/10/25 08:08:48;;;;;;;4.13;1.80;;;11.70;65.80;;;;;;5031989;28;48047;-83
2023/10/25 08:11:14;;;;;;;3.87;1.80;;;11.90;65.60;;;;;;5029505;28;47002;-79
2023/10/25 08:13:42;;;;;;;3.10;1.80;;;12.00;65.40;;;;;;5029909;28;46554;-84
2023/10/25 08:16:08;;;;;;;3.23;1.43;;;12.10;65.50;;;;;;5035514;28;46496;-81
2023/10/25 08:18:34;;;;;;;2.13;1.30;;;12.10;65.70;;;;;;5025666;28;49408;-82
2023/10/25 08:21:00;;;;;;;2.20;1.30;;;12.30;65.70;;;;;;5037091;28;46536;-85
2023/10/25 08:23:26;;;;;;;2.40;1.30;;;12.30;65.60;;;;;;5029728;28;46658;-84
2023/10/25 08:25:52;;;;;;;2.27;1.43;;;12.50;65.50;;;;;;5028337;28;46548;-85
2023/10/25 08:28:17;;;;;;;2.33;1.20;;;12.60;65.30;;;;;;5036309;28;48515;-87
2023/10/25 08:30:43;;;;;;;3.93;1.53;;;12.70;65.40;;;;;;5029882;28;45764;-84
2023/10/25 08:33:10;;;;;;;3.53;1.30;;;12.80;65.50;;;;;;5031183;28;46453;-85
2023/10/25 08:35:37;;;;;;;1.73;0.90;;;12.80;65.20;;;;;;5027712;28;46636;-86
2023/10/25 08:38:03;;;;;;;1.70;1.10;;;13.00;65.30;;;;;;5030232;28;46560;-84
2023/10/25 08:40:29;;;;;;;7.43;1.10;;;13.20;65.30;;;;;;5032123;28;46465;-83
2023/10/25 08:42:59;;;;;;;3.60;0.97;;;13.20;65.20;;;;;;5030809;28;46464;-85
2023/10/25 08:45:25;;;;;;;1.73;0.90;;;13.20;65.20;;;;;;5032811;28;45990;-85
2023/10/25 08:47:51;;;;;;;3.30;1.00;;;13.30;65.00;;;;;;5039173;28;47592;-84
2023/10/25 08:50:19;;;;;;;2.97;1.07;;;13.40;65.00;;;;;;5045159;28;46555;-80
2023/10/25 08:52:50;;;;;;;3.17;0.90;;;13.60;65.10;;;;;;5038545;28;46502;-86
2023/10/25 08:55:19;;;;;;;1.97;1.10;;;13.50;64.70;;;;;;5032641;28;46345;-83
2023/10/25 08:57:45;;;;;;;2.00;0.90;;;13.70;64.70;;;;;;5037701;28;46499;-85
2023/10/25 09:00:12;;;;;;;2.10;1.00;;;13.70;64.40;;;;;;5035121;28;46502;-86
2023/10/25 09:02:38;;;;;;;3.97;0.97;;;13.80;64.20;;;;;;5033297;28;45873;-86
2023/10/25 09:05:08;;;;;;;1.80;0.90;;;13.90;64.10;;;;;;5033368;28;46482;-82
2023/10/25 09:07:36;;;;;;;1.60;0.80;;;14.00;63.90;;;;;;5033124;28;46564;-83
2023/10/25 09:10:13;;;;;;;3.00;0.90;;;14.00;63.50;;;;;;5032316;28;46554;-83
2023/10/25 09:12:38;;;;;;;1.50;0.77;;;14.10;63.30;;;;;;5031233;28;46432;-81
2023/10/25 09:15:06;;;;;;;2.47;1.00;;;14.10;63.10;;;;;;5029575;28;47163;-81
2023/10/25 09:17:32;;;;;;;1.67;0.80;;;14.20;63.10;;;;;;5028192;28;46723;-82
2023/10/25 09:19:57;;;;;;;2.10;0.93;;;14.30;62.90;;;;;;5031655;28;46755;-82
2023/10/25 09:22:25;;;;;;;2.13;0.80;;;14.40;62.60;;;;;;5029563;28;46786;-85
2023/10/25 09:24:54;;;;;;;1.80;0.90;;;14.40;62.50;;;;;;5045010;28;46417;-83
2023/10/25 09:27:20;;;;;;;2.13;1.10;;;14.40;62.30;;;;;;5030062;28;47990;-83
2023/10/25 09:29:46;;;;;;;1.70;0.90;;;14.40;62.00;;;;;;5030877;28;46468;-86
2023/10/25 09:32:12;;;;;;;4.73;0.90;;;14.50;62.10;;;;;;5029667;28;46758;-83
2023/10/25 09:34:38;;;;;;;1.80;1.00;;;14.60;62.20;;;;;;5034483;28;46635;-81
2023/10/25 09:37:04;;;;;;;1.40;0.70;;;14.70;61.90;;;;;;5038656;28;48986;-84
2023/10/25 09:39:36;;;;;;;2.97;1.00;;;14.70;61.60;;;;;;5031454;28;46432;-84
2023/10/25 09:42:07;;;;;;;2.27;1.00;;;14.80;61.50;;;;;;5036668;28;46736;-80
2023/10/25 09:44:50;;;;;;;2.87;0.90;;;14.80;61.20;;;;;;5031572;28;46467;-82
2023/10/25 09:47:18;;;;;;;1.93;1.00;;;14.90;61.00;;;;;;5029828;28;46782;-83
2023/10/25 09:49:48;;;;;;;2.00;0.90;;;15.00;60.90;;;;;;5033129;28;46573;-83
2023/10/25 09:52:26;;;;;;;2.03;1.00;;;15.20;60.50;;;;;;5030555;28;46743;-81
2023/10/25 09:54:57;;;;;;;1.90;1.00;;;15.20;60.10;;;;;;5033245;28;46386;-82
2023/10/25 09:57:28;;;;;;;3.50;1.37;;;15.30;60.00;;;;;;5030381;28;48075;-83
2023/10/25 09:59:56;;;;;;;1.70;0.80;;;15.40;60.00;;;;;;5032115;28;46532;-83
2023/10/25 10:02:54;;;;;;;1.80;0.90;;;15.50;59.20;;;;;;5023977;28;46897;-85
2023/10/25 10:05:29;;;;;;;2.77;0.83;;;15.60;57.70;;;;;;5037845;28;46288;-82
2023/10/25 10:08:03;;;;;;;2.80;0.90;;;15.60;58.80;;;;;;5033459;28;47924;-81
2023/10/25 10:10:32;;;;;;;1.97;0.70;;;15.70;58.80;;;;;;5031323;28;46475;-83
2023/10/25 10:12:57;;;;;;;1.90;0.80;;;15.70;58.20;;;;;;5034011;28;46406;-82
2023/10/25 10:15:59;;;;;;;1.63;0.80;;;15.80;58.10;;;;;;5037208;28;46533;-82
2023/10/25 10:18:28;;;;;;;3.50;0.83;;;15.90;57.40;;;;;;5030651;28;47197;-82
2023/10/25 10:21:08;;;;;;;1.70;0.80;;;16.00;57.20;;;;;;5029199;28;46782;-82
2023/10/25 10:23:39;;;;;;;2.60;1.00;;;16.10;57.20;;;;;;5029642;28;45808;-84
2023/10/25 10:26:07;;;;;;;2.57;0.90;;;16.30;56.20;;;;;;5028237;28;47257;-85
2023/10/25 10:28:51;;;;;;;1.70;0.80;;;16.60;55.30;;;;;;5033140;28;48576;-82
2023/10/25 10:31:17;;;;;;;1.70;0.80;;;16.70;54.90;;;;;;5032844;28;47305;-83
2023/10/25 10:33:45;;;;;;;5.73;1.00;;;16.80;53.60;;;;;;5043735;28;46276;-83
2023/10/25 10:36:21;;;;;;;2.37;0.90;;;16.80;54.10;;;;;;5035034;28;46511;-84
2023/10/25 10:39:18;;;;;;;2.00;1.00;;;16.80;54.30;;;;;;5033335;28;46374;-84
2023/10/25 10:41:45;;;;;;;1.90;0.80;;;16.70;54.10;;;;;;5031191;28;46595;-84
2023/10/25 10:44:11;;;;;;;1.77;0.77;;;16.80;54.00;;;;;;5029763;28;46437;-80
2023/10/25 10:47:00;;;;;;;4.93;1.00;;;16.90;53.90;;;;;;5032396;28;46921;-84
2023/10/25 10:49:30;;;;;;;1.70;0.70;;;17.00;53.10;;;;;;5017147;28;48025;-82
2023/10/25 10:51:57;;;;;;;2.07;0.80;;;17.20;51.50;;;;;;5029161;28;46781;-79
2023/10/25 10:54:23;;;;;;;2.00;0.80;;;17.30;51.40;;;;;;5028798;28;46508;-83
2023/10/25 10:56:48;;;;;;;1.90;0.80;;;17.00;50.00;;;;;;5032801;28;45939;-83
2023/10/25 10:59:15;;;;;;;1.70;0.70;;;17.20;50.10;;;;;;5028844;28;46694;-85
2023/10/25 11:01:42;;;;;;;1.60;0.70;;;17.20;47.50;;;;;;5051180;28;46400;-84
2023/10/25 11:04:08;;;;;;;2.73;0.90;;;17.30;47.40;;;;;;5030510;28;46485;-85
2023/10/25 11:06:34;;;;;;;2.10;0.70;;;17.60;47.40;;;;;;5030068;28;46887;-83
2023/10/25 11:08:59;;;;;;;1.80;0.87;;;17.70;46.50;;;;;;5032122;28;46473;-84
2023/10/25 11:11:25;;;;;;;1.60;0.63;;;17.80;45.70;;;;;;5037040;28;46490;-84
2023/10/25 11:13:51;;;;;;;1.77;0.70;;;17.80;44.70;;;;;;5036058;28;46593;-83
2023/10/25 11:16:17;;;;;;;2.00;0.90;;;18.00;45.30;;;;;;5037045;28;46499;-83
2023/10/25 11:18:43;;;;;;;1.80;0.77;;;18.10;45.00;;;;;;5039355;28;46353;-84
2023/10/25 11:21:08;;;;;;;3.17;0.73;;;18.00;43.50;;;;;;5037647;28;46907;-83
2023/10/25 11:23:34;;;;;;;2.00;0.80;;;18.00;43.30;;;;;;5037532;28;46879;-82
2023/10/25 11:26:00;;;;;;;1.80;0.70;;;18.00;42.50;;;;;;5029273;28;46459;-82
2023/10/25 11:28:26;;;;;;;2.47;0.80;;;17.90;42.60;;;;;;5028391;28;47671;-83
2023/10/25 11:30:52;;;;;;;1.80;0.80;;;18.10;42.70;;;;;;5027177;28;46998;-82
2023/10/25 11:33:18;;;;;;;1.90;0.90;;;18.20;43.50;;;;;;5030881;28;46483;-83
2023/10/25 11:35:44;;;;;;;2.13;1.00;;;18.30;42.20;;;;;;5030676;28;46459;-82
2023/10/25 11:38:11;;;;;;;1.90;0.80;;;18.10;41.60;;;;;;5031896;28;47019;-83
2023/10/25 11:40:43;;;;;;;3.77;0.90;;;18.00;42.50;;;;;;5029074;28;46436;-82
2023/10/25 11:43:09;;;;;;;2.17;0.90;;;18.10;42.80;;;;;;5031956;28;46700;-82
2023/10/25 11:45:39;;;;;;;1.80;0.80;;;18.00;41.80;;;;;;5035079;28;46839;-84
2023/10/25 11:48:05;;;;;;;7.73;1.10;;;18.00;42.20;;;;;;5035337;28;48743;-83
2023/10/25 11:50:31;;;;;;;6.00;1.03;;;17.90;41.70;;;;;;5029859;28;46488;-82
2023/10/25 11:53:00;;;;;;;1.90;0.70;;;17.80;41.60;;;;;;5031136;28;46364;-82
2023/10/25 11:55:27;;;;;;;2.00;0.90;;;17.80;40.90;;;;;;5031532;28;46518;-82
2023/10/25 11:57:53;;;;;;;1.90;0.77;;;17.70;40.80;;;;;;5030212;28;47219;-84
2023/10/25 12:00:19;;;;;;;2.10;0.80;;;17.90;41.00;;;;;;5032173;28;46514;-83
2023/10/25 12:02:45;;;;;;;2.10;0.80;;;17.90;40.60;;;;;;5034996;28;46498;-84
2023/10/25 12:05:12;;;;;;;1.80;0.80;;;18.00;40.10;;;;;;5029532;28;46392;-83
2023/10/25 12:07:37;;;;;;;1.77;0.80;;;18.10;39.90;;;;;;5032493;28;47185;-82
2023/10/25 12:10:04;;;;;;;3.67;0.90;;;18.10;39.10;;;;;;5034456;28;46471;-83
2023/10/25 12:12:30;;;;;;;2.47;1.00;;;18.10;39.80;;;;;;5037005;28;46396;-83
2023/10/25 12:14:56;;;;;;;1.77;0.70;;;18.10;40.00;;;;;;5033853;28;46479;-84
2023/10/25 12:17:22;;;;;;;1.70;0.63;;;18.20;40.10;;;;;;5036013;28;46799;-83
2023/10/25 12:19:50;;;;;;;1.83;0.70;;;18.10;40.10;;;;;;5032349;28;46819;-84
2023/10/25 12:22:16;;;;;;;2.00;0.80;;;17.90;39.90;;;;;;5035110;28;46314;-83
2023/10/25 12:24:43;;;;;;;1.90;0.80;;;18.00;40.30;;;;;;5033952;28;46405;-84
2023/10/25 12:27:09;;;;;;;2.10;0.73;;;18.00;40.10;;;;;;5034171;28;46414;-83
2023/10/25 12:29:35;;;;;;;1.93;0.83;;;18.00;40.20;;;;;;5035251;28;46449;-83
2023/10/25 12:32:02;;;;;;;1.90;0.90;;;18.10;40.00;;;;;;5036937;28;46455;-83
2023/10/25 12:34:28;;;;;;;1.90;0.80;;;18.20;39.80;;;;;;5036608;28;46645;-82
2023/10/25 12:36:54;;;;;;;3.53;1.10;;;18.40;38.80;;;;;;5029415;28;46586;-83
2023/10/25 12:39:19;;;;;;;2.30;1.00;;;18.40;39.20;;;;;;5028242;28;46835;-83
2023/10/25 12:41:45;;;;;;;3.70;0.90;;;18.40;39.30;;;;;;5028828;28;46769;-83
2023/10/25 12:44:12;;;;;;;2.00;0.80;;;18.30;38.70;;;;;;5027274;28;46407;-83
2023/10/25 12:46:42;;;;;;;1.80;0.80;;;18.40;38.90;;;;;;5043229;28;48109;-82
2023/10/25 12:49:11;;;;;;;1.97;0.90;;;18.40;38.70;;;;;;5031350;28;46436;-82